This is the latest recevied weather packets stored in our database for station/object SP9WPN-12. If no packets are shown the sender has not sent any weather packets the latest 1 day(s).
| Time | Temp. | Humidity | Pressure | Rain* | Wind** | Luminosity | Snow |
|---|---|---|---|---|---|---|---|
| 1778041432 | 13.89° C | 71% | 1007.2 hPa | - | - | - | - |
| 1778040834 | 13.33° C | 73% | 1007.3 hPa | - | - | - | - |
| 1778040237 | 13.33° C | 71% | 1007.1 hPa | - | - | - | - |
| 1778039639 | 13.89° C | 69% | 1007.1 hPa | - | - | - | - |
| 1778039041 | 13.89° C | 68% | 1007 hPa | - | - | - | - |
| 1778038444 | 13.89° C | 68% | 1007 hPa | - | - | - | - |
| 1778037847 | 14.44° C | 67% | 1006.9 hPa | - | - | - | - |
| 1778036651 | 14.44° C | 67% | 1006.9 hPa | - | - | - | - |
| 1778036053 | 14.44° C | 66% | 1006.9 hPa | - | - | - | - |
| 1778034857 | 15.56° C | 62% | 1006.8 hPa | - | - | - | - |
| 1778034259 | 15.56° C | 61% | 1006.7 hPa | - | - | - | - |
| 1778033661 | 15.56° C | 60% | 1006.7 hPa | - | - | - | - |
| 1778033064 | 15.56° C | 61% | 1006.7 hPa | - | - | - | - |
| 1778032465 | 15° C | 61% | 1006.7 hPa | - | - | - | - |
| 1778031868 | 15.56° C | 59% | 1006.7 hPa | - | - | - | - |
| 1778031269 | 15.56° C | 58% | 1006.6 hPa | - | - | - | - |
| 1778030672 | 15.56° C | 57% | 1006.6 hPa | - | - | - | - |
| 1778030075 | 15.56° C | 57% | 1006.7 hPa | - | - | - | - |
| 1778029478 | 15.56° C | 56% | 1006.5 hPa | - | - | - | - |
| 1778028881 | 15° C | 57% | 1006.8 hPa | - | - | - | - |
| 1778028283 | 16.11° C | 55% | 1006.7 hPa | - | - | - | - |
| 1778027685 | 15.56° C | 56% | 1006.7 hPa | - | - | - | - |
| 1778027087 | 15.56° C | 56% | 1006.7 hPa | - | - | - | - |
| 1778026490 | 16.11° C | 54% | 1006.6 hPa | - | - | - | - |
| 1778025294 | 17.22° C | 50% | 1006.6 hPa | - | - | - | - |
* Rain since midnight (hover to see other rain measurements)
** Current wind speed in m/s (hover to see current wind gust speed)